createdAt,value
2022-10-13T00:00:51.332Z,1015.65
2022-10-13T00:01:51.288Z,1015.69
2022-10-13T00:02:51.243Z,1015.67
2022-10-13T00:03:51.245Z,1015.67
2022-10-13T00:04:51.220Z,1015.69
2022-10-13T00:05:51.202Z,1015.64
2022-10-13T00:06:51.228Z,1015.69
2022-10-13T00:07:51.174Z,1015.63
2022-10-13T00:08:51.171Z,1015.66
2022-10-13T00:09:51.169Z,1015.62
2022-10-13T00:10:51.159Z,1015.62
2022-10-13T00:11:51.196Z,1015.65
2022-10-13T00:12:51.119Z,1015.61
2022-10-13T00:13:51.120Z,1015.62
2022-10-13T00:14:51.091Z,1015.57
2022-10-13T00:15:51.102Z,1015.61
2022-10-13T00:16:51.145Z,1015.57
2022-10-13T00:17:51.080Z,1015.57
2022-10-13T00:18:51.055Z,1015.62
2022-10-13T00:19:51.037Z,1015.61
2022-10-13T00:20:51.011Z,1015.60
2022-10-13T00:21:51.058Z,1015.58
2022-10-13T00:22:51.024Z,1015.54
2022-10-13T00:23:51.003Z,1015.59
2022-10-13T00:24:50.998Z,1015.56
2022-10-13T00:25:50.976Z,1015.53
2022-10-13T00:26:51.006Z,1015.50
2022-10-13T00:27:50.960Z,1015.52
2022-10-13T00:28:52.844Z,1015.49
2022-10-13T00:29:50.937Z,1015.48
2022-10-13T00:30:50.924Z,1015.47
2022-10-13T00:31:50.938Z,1015.49
2022-10-13T00:32:50.901Z,1015.53
2022-10-13T00:33:50.886Z,1015.50
2022-10-13T00:34:50.877Z,1015.54
2022-10-13T00:35:50.857Z,1015.53
2022-10-13T00:36:50.895Z,1015.50
2022-10-13T00:37:50.843Z,1015.54
2022-10-13T00:38:50.952Z,1015.52
2022-10-13T00:39:50.818Z,1015.51
2022-10-13T00:40:50.800Z,1015.51
2022-10-13T00:41:50.926Z,1015.50
2022-10-13T00:42:50.779Z,1015.51
2022-10-13T00:43:50.790Z,1015.49
2022-10-13T00:44:50.751Z,1015.49
2022-10-13T00:45:50.765Z,1015.43
2022-10-13T00:46:50.790Z,1015.42
2022-10-13T00:47:50.721Z,1015.41
2022-10-13T00:48:50.712Z,1015.43
2022-10-13T00:49:50.707Z,1015.43
2022-10-13T00:50:50.681Z,1015.43
2022-10-13T00:51:50.712Z,1015.45
2022-10-13T00:52:50.653Z,1015.39
2022-10-13T00:53:50.654Z,1015.48
2022-10-13T00:54:50.655Z,1015.46
2022-10-13T00:55:50.646Z,1015.37
2022-10-13T00:56:50.665Z,1015.45
2022-10-13T00:57:50.616Z,1015.47
2022-10-13T00:58:50.606Z,1015.45
2022-10-13T00:59:50.600Z,1015.46
2022-10-13T01:00:50.616Z,1015.45
2022-10-13T01:01:50.609Z,1015.41
2022-10-13T01:02:50.552Z,1015.39
2022-10-13T01:03:50.533Z,1015.38
2022-10-13T01:04:50.533Z,1015.39
2022-10-13T01:05:50.522Z,1015.38
2022-10-13T01:06:50.530Z,1015.39
2022-10-13T01:07:50.485Z,1015.36
2022-10-13T01:08:50.506Z,1015.39
2022-10-13T01:09:50.480Z,1015.34
2022-10-13T01:10:50.456Z,1015.30
2022-10-13T01:11:50.487Z,1015.35
2022-10-13T01:12:50.432Z,1015.36
2022-10-13T01:13:50.437Z,1015.33
2022-10-13T01:14:50.417Z,1015.34
2022-10-13T01:15:50.397Z,1015.33
2022-10-13T01:16:50.437Z,1015.32
2022-10-13T01:17:50.377Z,1015.32
2022-10-13T01:18:50.377Z,1015.29
2022-10-13T01:19:50.363Z,1015.31
2022-10-13T01:20:50.332Z,1015.27
2022-10-13T01:21:50.359Z,1015.27
2022-10-13T01:22:50.389Z,1015.27
2022-10-13T01:23:50.321Z,1015.27
2022-10-13T01:24:50.295Z,1015.23
2022-10-13T01:25:50.299Z,1015.24
2022-10-13T01:26:50.333Z,1015.24
2022-10-13T01:27:50.258Z,1015.25
2022-10-13T01:28:50.338Z,1015.22
2022-10-13T01:29:50.244Z,1015.22
2022-10-13T01:30:50.240Z,1015.21
2022-10-13T01:31:50.278Z,1015.24
2022-10-13T01:32:50.219Z,1015.22
2022-10-13T01:33:50.196Z,1015.19
2022-10-13T01:34:50.185Z,1015.20
2022-10-13T01:35:50.179Z,1015.11
2022-10-13T01:36:50.215Z,1015.17
2022-10-13T01:37:50.160Z,1015.15
2022-10-13T01:38:50.143Z,1015.20
2022-10-13T01:39:50.140Z,1015.16
2022-10-13T01:40:50.126Z,1015.19
2022-10-13T01:41:50.124Z,1015.18
2022-10-13T01:42:50.100Z,1015.14
2022-10-13T01:43:50.081Z,1015.17
2022-10-13T01:44:50.087Z,1015.15
2022-10-13T01:45:50.064Z,1015.18
2022-10-13T01:46:50.094Z,1015.16
2022-10-13T01:47:50.039Z,1015.16
2022-10-13T01:48:50.039Z,1015.13
2022-10-13T01:49:50.004Z,1015.18
2022-10-13T01:50:49.994Z,1015.13
2022-10-13T01:51:50.035Z,1015.13
2022-10-13T01:52:49.970Z,1015.12
2022-10-13T01:53:50.008Z,1015.10
2022-10-13T01:54:49.956Z,1015.06
2022-10-13T01:55:49.955Z,1015.03
2022-10-13T01:56:49.993Z,1015.08
2022-10-13T01:57:49.929Z,1015.06
2022-10-13T01:58:49.915Z,1015.09
2022-10-13T01:59:49.898Z,1015.07
2022-10-13T02:00:49.938Z,1015.08
2022-10-13T02:01:49.929Z,1015.11
2022-10-13T02:02:49.856Z,1015.07
2022-10-13T02:03:49.852Z,1015.05
2022-10-13T02:04:49.872Z,1015.07
2022-10-13T02:05:49.840Z,1015.05
2022-10-13T02:06:49.871Z,1015.00
2022-10-13T02:07:49.819Z,1014.99
2022-10-13T02:08:49.800Z,1015.01
2022-10-13T02:09:49.792Z,1014.99
2022-10-13T02:10:49.780Z,1014.99
2022-10-13T02:11:49.816Z,1015.01
2022-10-13T02:12:49.760Z,1015.00
2022-10-13T02:13:49.736Z,1014.96
2022-10-13T02:14:49.737Z,1014.98
2022-10-13T02:15:49.713Z,1014.95
2022-10-13T02:16:49.747Z,1014.97
2022-10-13T02:17:49.689Z,1014.95
2022-10-13T02:18:49.700Z,1014.94
2022-10-13T02:19:49.701Z,1014.93
2022-10-13T02:20:49.649Z,1014.96
2022-10-13T02:21:49.688Z,1014.97
2022-10-13T02:22:49.627Z,1015.00
2022-10-13T02:23:49.635Z,1014.93
2022-10-13T02:24:49.624Z,1014.97
2022-10-13T02:25:49.606Z,1014.93
2022-10-13T02:26:49.647Z,1014.96
2022-10-13T02:27:49.603Z,1014.94
2022-10-13T02:28:49.612Z,1014.93
2022-10-13T02:29:49.579Z,1014.92
2022-10-13T02:30:49.556Z,1014.94
2022-10-13T02:31:49.587Z,1014.92
2022-10-13T02:32:49.542Z,1014.92
2022-10-13T02:33:49.510Z,1014.92
2022-10-13T02:34:49.522Z,1014.91
2022-10-13T02:35:49.493Z,1014.93
2022-10-13T02:36:49.515Z,1014.89
2022-10-13T02:37:49.473Z,1014.91
2022-10-13T02:38:49.495Z,1014.89
2022-10-13T02:39:49.461Z,1014.92
2022-10-13T02:40:49.435Z,1014.89
2022-10-13T02:41:49.470Z,1014.92
2022-10-13T02:42:49.419Z,1014.89
2022-10-13T02:43:49.415Z,1014.91
2022-10-13T02:44:49.396Z,1014.92
2022-10-13T02:45:49.372Z,1014.89
2022-10-13T02:46:49.416Z,1014.90
2022-10-13T02:47:49.358Z,1014.89
2022-10-13T02:48:49.364Z,1014.90
2022-10-13T02:49:49.335Z,1014.89
2022-10-13T02:50:49.314Z,1014.86
2022-10-13T02:51:49.351Z,1014.87
2022-10-13T02:52:49.296Z,1014.88
2022-10-13T02:53:49.306Z,1014.87
2022-10-13T02:54:49.325Z,1014.88
2022-10-13T02:55:49.277Z,1014.86
2022-10-13T02:56:49.310Z,1014.89
2022-10-13T02:57:49.255Z,1014.86
2022-10-13T02:58:49.240Z,1014.84
2022-10-13T02:59:49.230Z,1014.82
2022-10-13T03:00:49.249Z,1014.82
2022-10-13T03:01:49.245Z,1014.79
2022-10-13T03:02:49.220Z,1014.82
2022-10-13T03:03:49.173Z,1014.78
2022-10-13T03:04:49.180Z,1014.81
2022-10-13T03:05:49.163Z,1014.79
2022-10-13T03:06:49.192Z,1014.79
2022-10-13T03:07:49.138Z,1014.76
2022-10-13T03:08:49.140Z,1014.77
2022-10-13T03:09:49.117Z,1014.77
2022-10-13T03:10:49.099Z,1014.76
2022-10-13T03:11:49.129Z,1014.76
2022-10-13T03:12:49.085Z,1014.73
2022-10-13T03:13:49.074Z,1014.76
2022-10-13T03:14:49.073Z,1014.73
2022-10-13T03:15:49.064Z,1014.78
2022-10-13T03:16:49.096Z,1014.73
2022-10-13T03:17:49.024Z,1014.76
2022-10-13T03:18:49.032Z,1014.79
2022-10-13T03:19:48.999Z,1014.77
2022-10-13T03:20:48.980Z,1014.73
2022-10-13T03:21:49.006Z,1014.73
2022-10-13T03:22:50.045Z,1014.73
2022-10-13T03:23:48.960Z,1014.67
2022-10-13T03:24:48.988Z,1014.71
2022-10-13T03:25:48.934Z,1014.67
2022-10-13T03:26:48.970Z,1014.73
2022-10-13T03:27:48.908Z,1014.69
2022-10-13T03:28:48.953Z,1014.69
2022-10-13T03:29:48.896Z,1014.65
2022-10-13T03:30:48.895Z,1014.68
2022-10-13T03:31:48.911Z,1014.66
2022-10-13T03:32:48.864Z,1014.63
2022-10-13T03:33:48.832Z,1014.63
2022-10-13T03:34:48.841Z,1014.62
2022-10-13T03:35:48.817Z,1014.62
2022-10-13T03:36:48.851Z,1014.66
2022-10-13T03:37:48.790Z,1014.64
2022-10-13T03:38:48.796Z,1014.62
2022-10-13T03:39:48.771Z,1014.62
2022-10-13T03:40:48.789Z,1014.52
2022-10-13T03:41:48.808Z,1014.61
2022-10-13T03:42:48.757Z,1014.59
2022-10-13T03:43:48.729Z,1014.56
2022-10-13T03:44:52.386Z,1014.52
2022-10-13T03:45:49.729Z,1014.55
2022-10-13T03:46:48.758Z,1014.52
2022-10-13T03:47:48.697Z,1014.50
2022-10-13T03:48:48.673Z,1014.55
2022-10-13T03:49:48.650Z,1014.59
2022-10-13T03:50:48.668Z,1014.52
2022-10-13T03:51:48.687Z,1014.55
2022-10-13T03:52:48.633Z,1014.52
2022-10-13T03:53:48.601Z,1014.48
2022-10-13T03:54:48.624Z,1014.48
2022-10-13T03:55:48.606Z,1014.47
2022-10-13T03:56:48.632Z,1014.49
2022-10-13T03:57:48.577Z,1014.44
2022-10-13T03:58:48.578Z,1014.50
2022-10-13T03:59:48.556Z,1014.49
2022-10-13T04:00:48.539Z,1014.54
2022-10-13T04:01:48.629Z,1014.47
2022-10-13T04:02:48.518Z,1014.44
2022-10-13T04:03:48.516Z,1014.48
2022-10-13T04:04:48.504Z,1014.43
2022-10-13T04:05:48.499Z,1014.43
2022-10-13T04:06:48.512Z,1014.40
2022-10-13T04:07:48.461Z,1014.40
2022-10-13T04:08:48.459Z,1014.34
2022-10-13T04:09:48.470Z,1014.33
2022-10-13T04:10:48.449Z,1014.40
2022-10-13T04:11:48.475Z,1014.32
2022-10-13T04:12:48.432Z,1014.35
2022-10-13T04:13:48.396Z,1014.35
2022-10-13T04:14:48.374Z,1014.31
2022-10-13T04:15:48.382Z,1014.33
2022-10-13T04:16:48.417Z,1014.29
2022-10-13T04:17:48.394Z,1014.33
2022-10-13T04:18:48.343Z,1014.32
2022-10-13T04:19:48.335Z,1014.33
2022-10-13T04:20:48.310Z,1014.34
2022-10-13T04:21:48.344Z,1014.34
2022-10-13T04:22:48.302Z,1014.34
2022-10-13T04:23:48.297Z,1014.39
2022-10-13T04:24:48.283Z,1014.36
2022-10-13T04:25:48.248Z,1014.38
2022-10-13T04:26:48.308Z,1014.38
2022-10-13T04:27:48.239Z,1014.33
2022-10-13T04:28:48.290Z,1014.31
2022-10-13T04:29:48.218Z,1014.30
2022-10-13T04:30:49.615Z,1014.31
2022-10-13T04:31:48.231Z,1014.32
2022-10-13T04:32:48.176Z,1014.29
2022-10-13T04:33:48.179Z,1014.27
2022-10-13T04:34:48.154Z,1014.26
2022-10-13T04:35:48.163Z,1014.21
2022-10-13T04:36:48.190Z,1014.20
2022-10-13T04:37:48.152Z,1014.23
2022-10-13T04:38:48.123Z,1014.22
2022-10-13T04:39:48.101Z,1014.15
2022-10-13T04:40:48.103Z,1014.19
2022-10-13T04:41:48.139Z,1014.15
2022-10-13T04:42:48.081Z,1014.18
2022-10-13T04:43:48.062Z,1014.16
2022-10-13T04:44:48.062Z,1014.25
2022-10-13T04:45:48.053Z,1014.24
2022-10-13T04:46:48.071Z,1014.28
2022-10-13T04:47:48.016Z,1014.19
2022-10-13T04:48:48.016Z,1014.19
2022-10-13T04:49:47.991Z,1014.17
2022-10-13T04:50:47.962Z,1014.20
2022-10-13T04:51:47.991Z,1014.18
2022-10-13T04:52:47.937Z,1014.17
2022-10-13T04:53:47.931Z,1014.19
2022-10-13T04:54:47.939Z,1014.21
2022-10-13T04:55:47.943Z,1014.19
2022-10-13T04:56:47.957Z,1014.16
2022-10-13T04:57:47.905Z,1014.18
2022-10-13T04:58:47.895Z,1014.16
2022-10-13T04:59:47.871Z,1014.13
2022-10-13T05:00:47.917Z,1014.15
2022-10-13T05:01:47.896Z,1014.14
2022-10-13T05:02:47.849Z,1014.12
2022-10-13T05:03:47.839Z,1014.15
2022-10-13T05:04:47.827Z,1014.19
2022-10-13T05:05:47.818Z,1014.20
2022-10-13T05:07:16.022Z,1014.19
2022-10-13T05:07:48.773Z,1014.16
2022-10-13T05:08:47.778Z,1014.18
2022-10-13T05:09:47.764Z,1014.18
2022-10-13T05:10:47.758Z,1014.14
2022-10-13T05:11:47.812Z,1014.12
2022-10-13T05:12:47.753Z,1014.16
2022-10-13T05:13:47.717Z,1014.15
2022-10-13T05:14:47.728Z,1014.10
2022-10-13T05:15:47.708Z,1014.05
2022-10-13T05:16:47.748Z,1014.07
2022-10-13T05:17:47.683Z,1014.07
2022-10-13T05:18:47.668Z,1014.05
2022-10-13T05:19:47.640Z,1014.06
2022-10-13T05:20:47.625Z,1014.08
2022-10-13T05:21:47.680Z,1014.08
2022-10-13T05:22:47.643Z,1014.07
2022-10-13T05:23:47.602Z,1014.08
2022-10-13T05:24:47.605Z,1014.10
2022-10-13T05:25:47.590Z,1014.09
2022-10-13T05:26:47.611Z,1014.09
2022-10-13T05:27:47.558Z,1014.09
2022-10-13T05:28:47.607Z,1014.04
2022-10-13T05:29:47.548Z,1014.07
2022-10-13T05:30:47.516Z,1014.05
2022-10-13T05:31:47.556Z,1014.06
2022-10-13T05:32:51.514Z,1014.06
2022-10-13T05:33:48.538Z,1014.03
2022-10-13T05:34:47.478Z,1014.09
2022-10-13T05:35:47.475Z,1014.03
2022-10-13T05:36:47.522Z,1013.99
2022-10-13T05:37:47.457Z,1013.95
2022-10-13T05:38:47.450Z,1013.98
2022-10-13T05:39:48.976Z,1013.94
2022-10-13T05:40:47.399Z,1014.01
2022-10-13T05:41:47.487Z,1013.98
2022-10-13T05:42:47.393Z,1013.99
2022-10-13T05:43:47.380Z,1014.00
2022-10-13T05:44:47.376Z,1013.98
2022-10-13T05:45:47.365Z,1014.00
2022-10-13T05:46:47.402Z,1013.94
2022-10-13T05:47:47.337Z,1013.96
2022-10-13T05:48:47.325Z,1013.95
2022-10-13T05:49:47.306Z,1013.91
2022-10-13T05:50:47.291Z,1013.91
2022-10-13T05:51:47.326Z,1013.91
2022-10-13T05:52:47.281Z,1013.87
2022-10-13T05:53:51.093Z,1013.89
2022-10-13T05:54:48.260Z,1013.94
2022-10-13T05:55:47.238Z,1013.89
2022-10-13T05:56:47.270Z,1013.85
2022-10-13T05:57:47.230Z,1013.82
2022-10-13T05:58:47.228Z,1013.78
2022-10-13T05:59:47.205Z,1013.82
2022-10-13T06:00:47.208Z,1013.80
2022-10-13T06:01:47.259Z,1013.82
2022-10-13T06:02:47.212Z,1013.77
2022-10-13T06:03:47.159Z,1013.80
2022-10-13T06:04:47.158Z,1013.78
2022-10-13T06:05:47.154Z,1013.77
2022-10-13T06:06:47.109Z,1013.80
2022-10-13T06:07:47.165Z,1013.81
2022-10-13T06:08:47.094Z,1013.85
2022-10-13T06:09:47.097Z,1013.85
2022-10-13T06:10:47.073Z,1013.82
2022-10-13T06:11:47.058Z,1013.85
2022-10-13T06:12:47.095Z,1013.85
2022-10-13T06:13:47.043Z,1013.87
2022-10-13T06:14:47.047Z,1013.86
2022-10-13T06:15:47.017Z,1013.85
2022-10-13T06:16:47.047Z,1013.88
2022-10-13T06:17:47.176Z,1013.91
2022-10-13T06:18:46.992Z,1013.94
2022-10-13T06:19:46.960Z,1013.87
2022-10-13T06:20:46.945Z,1013.92
2022-10-13T06:21:46.950Z,1013.92
2022-10-13T06:22:46.996Z,1013.96
2022-10-13T06:23:46.915Z,1013.91
2022-10-13T06:24:46.919Z,1013.91
2022-10-13T06:25:46.896Z,1013.90
2022-10-13T06:26:46.938Z,1013.85
2022-10-13T06:27:46.928Z,1013.86
2022-10-13T06:28:50.180Z,1013.94
2022-10-13T06:29:47.856Z,1013.92
2022-10-13T06:30:46.863Z,1013.90
2022-10-13T06:31:46.826Z,1013.93
2022-10-13T06:32:46.878Z,1013.91
2022-10-13T06:33:46.824Z,1013.90
2022-10-13T06:34:46.803Z,1013.94
2022-10-13T06:35:46.796Z,1013.89
2022-10-13T06:36:46.784Z,1013.92
2022-10-13T06:37:46.819Z,1013.92
2022-10-13T06:38:46.760Z,1013.90
2022-10-13T06:39:46.774Z,1013.87
2022-10-13T06:40:46.749Z,1013.90
2022-10-13T06:41:46.723Z,1013.86
2022-10-13T06:42:46.749Z,1013.89
2022-10-13T06:43:46.696Z,1013.91
2022-10-13T06:44:46.700Z,1013.89
2022-10-13T06:45:46.674Z,1013.89
2022-10-13T06:46:46.682Z,1013.88
2022-10-13T06:47:46.700Z,1013.88
2022-10-13T06:48:46.654Z,1013.91
2022-10-13T06:49:46.614Z,1013.86
2022-10-13T06:50:46.612Z,1013.89
2022-10-13T06:51:46.629Z,1013.81
2022-10-13T06:52:46.653Z,1013.82
2022-10-13T06:53:46.616Z,1013.85
2022-10-13T06:54:46.588Z,1013.83
2022-10-13T06:55:51.564Z,1013.80
2022-10-13T06:56:47.552Z,1013.84
2022-10-13T06:57:46.588Z,1013.85
2022-10-13T06:58:46.541Z,1013.79
2022-10-13T06:59:46.533Z,1013.85
2022-10-13T07:00:46.528Z,1013.84
2022-10-13T07:01:46.498Z,1013.83
2022-10-13T07:02:46.541Z,1013.88
2022-10-13T07:03:46.482Z,1013.87
2022-10-13T07:04:46.467Z,1013.89
2022-10-13T07:05:46.471Z,1013.87
2022-10-13T07:06:46.460Z,1013.90
2022-10-13T07:07:46.492Z,1013.94
2022-10-13T07:08:46.410Z,1013.95
2022-10-13T07:09:46.419Z,1013.88
2022-10-13T07:10:46.389Z,1013.91
2022-10-13T07:11:46.376Z,1013.88
2022-10-13T07:12:46.413Z,1013.88
2022-10-13T07:13:47.045Z,1013.94
2022-10-13T07:14:46.352Z,1013.95
2022-10-13T07:15:46.353Z,1013.90
2022-10-13T07:16:46.333Z,1013.91
2022-10-13T07:17:46.371Z,1013.94
2022-10-13T07:18:46.296Z,1013.94
2022-10-13T07:19:46.291Z,1013.88
2022-10-13T07:20:46.305Z,1013.93
2022-10-13T07:21:46.290Z,1013.87
2022-10-13T07:22:46.295Z,1013.90
2022-10-13T07:23:46.256Z,1013.88
2022-10-13T07:24:46.242Z,1013.88
2022-10-13T07:25:46.236Z,1013.84
2022-10-13T07:26:46.215Z,1013.92
2022-10-13T07:27:46.246Z,1013.87
2022-10-13T07:28:46.239Z,1013.85
2022-10-13T07:29:46.192Z,1013.89
2022-10-13T07:30:46.178Z,1013.86
2022-10-13T07:31:46.207Z,1013.88
2022-10-13T07:32:46.179Z,1013.89
2022-10-13T07:33:46.129Z,1013.89
2022-10-13T07:34:46.129Z,1013.88
2022-10-13T07:35:46.125Z,1013.90
2022-10-13T07:36:46.109Z,1013.87
2022-10-13T07:37:46.161Z,1013.90
2022-10-13T07:38:46.096Z,1013.88
2022-10-13T07:39:46.068Z,1013.88
2022-10-13T07:40:46.078Z,1013.84
2022-10-13T07:41:50.744Z,1013.85
2022-10-13T07:42:47.093Z,1013.90
2022-10-13T07:43:46.046Z,1013.85
2022-10-13T07:44:45.987Z,1013.87
2022-10-13T07:45:46.013Z,1013.87
2022-10-13T07:46:45.982Z,1013.86
2022-10-13T07:47:46.014Z,1013.83
2022-10-13T07:48:45.947Z,1013.82
2022-10-13T07:49:45.946Z,1013.78
2022-10-13T07:50:45.957Z,1013.77
2022-10-13T07:51:45.952Z,1013.74
2022-10-13T07:52:45.987Z,1013.70
2022-10-13T07:53:45.931Z,1013.76
2022-10-13T07:54:45.912Z,1013.70
2022-10-13T07:55:45.888Z,1013.69
2022-10-13T07:56:45.868Z,1013.63
2022-10-13T07:57:45.898Z,1013.57
2022-10-13T07:58:45.850Z,1013.60
2022-10-13T07:59:45.866Z,1013.61
2022-10-13T08:00:45.827Z,1013.55
2022-10-13T08:01:45.873Z,1013.56
2022-10-13T08:02:45.876Z,1013.58
2022-10-13T08:03:49.084Z,1013.57
2022-10-13T08:04:46.800Z,1013.52
2022-10-13T08:05:45.769Z,1013.54
2022-10-13T08:06:45.814Z,1013.60
2022-10-13T08:07:45.747Z,1013.53
2022-10-13T08:08:45.764Z,1013.50
2022-10-13T08:09:45.740Z,1013.51
2022-10-13T08:10:45.731Z,1013.48
2022-10-13T08:11:45.735Z,1013.47
2022-10-13T08:12:45.698Z,1013.47
2022-10-13T08:13:45.702Z,1013.46
2022-10-13T08:14:45.832Z,1013.44
2022-10-13T08:15:45.697Z,1013.40
2022-10-13T08:16:48.689Z,1013.43
2022-10-13T08:17:46.623Z,1013.41
2022-10-13T08:18:45.635Z,1013.44
2022-10-13T08:19:45.622Z,1013.40
2022-10-13T08:20:45.614Z,1013.37
2022-10-13T08:22:00.975Z,1013.42
2022-10-13T08:22:46.597Z,1013.37
2022-10-13T08:23:45.574Z,1013.37
2022-10-13T08:24:45.574Z,1013.42
2022-10-13T08:25:45.545Z,1013.41
2022-10-13T08:26:45.590Z,1013.36
2022-10-13T08:27:51.087Z,1013.34
2022-10-13T08:29:02.975Z,1013.37
2022-10-13T08:29:46.515Z,1013.34
2022-10-13T08:30:45.619Z,1013.31
2022-10-13T08:31:45.721Z,1013.28
2022-10-13T08:32:45.471Z,1013.29
2022-10-13T08:33:45.445Z,1013.30
2022-10-13T08:34:45.453Z,1013.33
2022-10-13T08:35:45.425Z,1013.26
2022-10-13T08:36:45.461Z,1013.32
2022-10-13T08:37:45.439Z,1013.29
2022-10-13T08:38:45.417Z,1013.30
2022-10-13T08:39:45.412Z,1013.27
2022-10-13T08:40:45.402Z,1013.32
2022-10-13T08:41:45.394Z,1013.35
2022-10-13T08:42:45.344Z,1013.32
2022-10-13T08:44:13.389Z,1013.31
2022-10-13T08:45:46.319Z,1013.34
2022-10-13T08:46:45.339Z,1013.29
2022-10-13T08:47:45.292Z,1013.30
2022-10-13T08:48:45.296Z,1013.33
2022-10-13T08:49:45.284Z,1013.30
2022-10-13T08:50:45.259Z,1013.27
2022-10-13T08:51:45.305Z,1013.28
2022-10-13T08:52:45.293Z,1013.29
2022-10-13T08:53:45.250Z,1013.34
2022-10-13T08:54:45.218Z,1013.20
2022-10-13T08:55:45.242Z,1013.25
2022-10-13T08:56:45.198Z,1013.26
2022-10-13T08:57:45.246Z,1013.25
2022-10-13T08:58:45.180Z,1013.19
2022-10-13T08:59:45.160Z,1013.20
2022-10-13T09:00:45.165Z,1013.24
2022-10-13T09:01:45.174Z,1013.23
2022-10-13T09:02:45.176Z,1013.18
2022-10-13T09:03:45.121Z,1013.19
2022-10-13T09:04:45.124Z,1013.18
2022-10-13T09:05:45.094Z,1013.18
2022-10-13T09:06:45.078Z,1013.18
2022-10-13T09:07:45.148Z,1013.12
2022-10-13T09:08:45.059Z,1013.16
2022-10-13T09:09:45.103Z,1013.14
2022-10-13T09:10:45.034Z,1013.15
2022-10-13T09:11:45.053Z,1013.10
2022-10-13T09:12:45.033Z,1013.14
2022-10-13T09:13:45.010Z,1013.10
2022-10-13T09:14:45.055Z,1013.08
2022-10-13T09:15:44.974Z,1013.18
2022-10-13T09:16:44.976Z,1013.17
2022-10-13T09:17:44.981Z,1013.17
2022-10-13T09:18:44.955Z,1013.17
2022-10-13T09:19:45.003Z,1013.19
2022-10-13T09:20:44.925Z,1013.15
2022-10-13T09:21:44.914Z,1013.18
2022-10-13T09:22:44.910Z,1013.21
2022-10-13T09:23:44.915Z,1013.16
2022-10-13T09:24:44.926Z,1013.16
2022-10-13T09:25:44.878Z,1013.16
2022-10-13T09:26:44.838Z,1013.12
2022-10-13T09:27:44.857Z,1013.12
2022-10-13T09:28:45.937Z,1013.12
2022-10-13T09:29:44.869Z,1013.16
2022-10-13T09:30:44.810Z,1013.17
2022-10-13T09:31:44.800Z,1013.19
2022-10-13T09:32:44.800Z,1013.13
2022-10-13T09:33:44.777Z,1013.14
2022-10-13T09:34:44.810Z,1013.09
2022-10-13T09:35:44.744Z,1013.07
2022-10-13T09:36:44.753Z,1013.12
2022-10-13T09:37:44.738Z,1013.10
2022-10-13T09:38:44.705Z,1013.03
2022-10-13T09:39:44.737Z,1013.01
2022-10-13T09:40:44.709Z,1013.02
2022-10-13T09:41:44.723Z,1013.03
2022-10-13T09:42:44.675Z,1013.07
2022-10-13T09:43:44.660Z,1013.01
2022-10-13T09:44:44.698Z,1012.97
2022-10-13T09:45:44.642Z,1013.03
2022-10-13T09:46:44.635Z,1012.99
2022-10-13T09:47:44.636Z,1012.95
2022-10-13T09:48:44.620Z,1012.97
2022-10-13T09:49:44.656Z,1012.99
2022-10-13T09:50:44.602Z,1012.92
2022-10-13T09:51:44.571Z,1012.96
2022-10-13T09:52:44.560Z,1012.94
2022-10-13T09:53:44.557Z,1012.97
2022-10-13T09:54:44.586Z,1012.96
2022-10-13T09:55:44.535Z,1012.94
2022-10-13T09:56:44.523Z,1012.94
2022-10-13T09:57:44.519Z,1012.97
2022-10-13T09:59:44.530Z,1012.90
2022-10-13T10:00:44.496Z,1012.94
2022-10-13T10:01:44.469Z,1012.86
2022-10-13T10:02:44.476Z,1012.85
2022-10-13T10:03:44.553Z,1012.90
2022-10-13T10:04:44.434Z,1012.81
2022-10-13T10:05:44.426Z,1012.85
2022-10-13T10:06:44.417Z,1012.84
2022-10-13T10:07:44.401Z,1012.84
2022-10-13T10:09:02.020Z,1012.84
2022-10-13T10:09:45.406Z,1012.81
2022-10-13T10:10:44.361Z,1012.76
2022-10-13T10:11:44.373Z,1012.87
2022-10-13T10:12:44.329Z,1012.82
2022-10-13T10:13:44.377Z,1012.84
2022-10-13T10:14:44.322Z,1012.81
2022-10-13T10:15:44.307Z,1012.88
2022-10-13T10:16:44.325Z,1012.84
2022-10-13T10:17:44.289Z,1012.82
2022-10-13T10:18:44.276Z,1012.79
2022-10-13T10:19:44.337Z,1012.85
2022-10-13T10:20:44.276Z,1012.81
2022-10-13T10:21:44.246Z,1012.77
2022-10-13T10:22:44.248Z,1012.74
2022-10-13T10:23:44.226Z,1012.80
2022-10-13T10:24:44.263Z,1012.72
2022-10-13T10:25:44.198Z,1012.74
2022-10-13T10:26:44.183Z,1012.78
2022-10-13T10:27:44.194Z,1012.76
2022-10-13T10:28:44.240Z,1012.71
2022-10-13T10:29:44.185Z,1012.71
2022-10-13T10:30:44.143Z,1012.72
2022-10-13T10:31:44.135Z,1012.64
2022-10-13T10:32:44.134Z,1012.65
2022-10-13T10:33:44.115Z,1012.69
2022-10-13T10:34:44.160Z,1012.67
2022-10-13T10:35:44.102Z,1012.70
2022-10-13T10:36:44.099Z,1012.64
2022-10-13T10:37:44.055Z,1012.63
2022-10-13T10:38:44.077Z,1012.67
2022-10-13T10:39:44.070Z,1012.62
2022-10-13T10:40:44.059Z,1012.61
2022-10-13T10:41:44.004Z,1012.63
2022-10-13T10:42:47.295Z,1012.64
2022-10-13T10:43:44.982Z,1012.63
2022-10-13T10:44:44.138Z,1012.60
2022-10-13T10:45:43.986Z,1012.60
2022-10-13T10:46:43.957Z,1012.69
2022-10-13T10:47:43.971Z,1012.65
2022-10-13T10:48:43.959Z,1012.64
2022-10-13T10:49:43.973Z,1012.62
2022-10-13T10:50:43.917Z,1012.61
2022-10-13T10:51:43.922Z,1012.64
2022-10-13T10:52:43.901Z,1012.56
2022-10-13T10:53:43.876Z,1012.58
2022-10-13T10:54:48.321Z,1012.56
2022-10-13T10:55:44.873Z,1012.55
2022-10-13T10:56:43.880Z,1012.56
2022-10-13T10:57:43.832Z,1012.51
2022-10-13T10:58:43.838Z,1012.51
2022-10-13T10:59:43.880Z,1012.45
2022-10-13T11:00:43.831Z,1012.47
2022-10-13T11:01:43.841Z,1012.39
2022-10-13T11:02:43.797Z,1012.37
2022-10-13T11:03:43.769Z,1012.41
2022-10-13T11:04:43.818Z,1012.42
2022-10-13T11:05:43.765Z,1012.42
2022-10-13T11:06:43.757Z,1012.37
2022-10-13T11:07:43.748Z,1012.37
2022-10-13T11:08:43.722Z,1012.43
2022-10-13T11:09:43.767Z,1012.41
2022-10-13T11:10:43.697Z,1012.32
2022-10-13T11:11:43.679Z,1012.27
2022-10-13T11:12:43.669Z,1012.31
2022-10-13T11:13:43.688Z,1012.30
2022-10-13T11:14:43.711Z,1012.28
2022-10-13T11:15:43.668Z,1012.22
2022-10-13T11:16:43.649Z,1012.20
2022-10-13T11:17:43.624Z,1012.25
2022-10-13T11:18:43.619Z,1012.21
2022-10-13T11:19:43.665Z,1012.25
2022-10-13T11:20:43.600Z,1012.21
2022-10-13T11:21:43.623Z,1012.22
2022-10-13T11:22:43.585Z,1012.19
2022-10-13T11:23:43.569Z,1012.16
2022-10-13T11:24:43.608Z,1012.11
2022-10-13T11:25:43.532Z,1012.13
2022-10-13T11:26:43.518Z,1012.14
2022-10-13T11:27:43.514Z,1012.12
2022-10-13T11:28:43.522Z,1012.04
2022-10-13T11:29:43.570Z,1012.11
2022-10-13T11:30:43.492Z,1012.09
2022-10-13T11:31:43.496Z,1012.06
2022-10-13T11:32:43.470Z,1012.02
2022-10-13T11:33:43.461Z,1011.98
2022-10-13T11:34:43.504Z,1011.97
2022-10-13T11:35:43.425Z,1012.02
2022-10-13T11:36:43.417Z,1011.92
2022-10-13T11:37:48.298Z,1011.98
2022-10-13T11:38:44.406Z,1011.98
2022-10-13T11:39:43.420Z,1011.91
2022-10-13T11:40:43.364Z,1011.83
2022-10-13T11:41:43.358Z,1011.85
2022-10-13T11:42:43.371Z,1011.83
2022-10-13T11:43:43.374Z,1011.79
2022-10-13T11:44:43.392Z,1011.83
2022-10-13T11:45:43.312Z,1011.84
2022-10-13T11:46:43.334Z,1011.79
2022-10-13T11:47:43.292Z,1011.76
2022-10-13T11:48:43.305Z,1011.75
2022-10-13T11:49:43.313Z,1011.76
2022-10-13T11:50:43.266Z,1011.68
2022-10-13T11:51:43.264Z,1011.73
2022-10-13T11:52:43.259Z,1011.72
2022-10-13T11:53:43.232Z,1011.75
2022-10-13T11:54:43.272Z,1011.73
2022-10-13T11:55:43.234Z,1011.76
2022-10-13T11:56:46.115Z,1011.73
2022-10-13T11:57:44.196Z,1011.72
2022-10-13T11:58:43.185Z,1011.78
2022-10-13T11:59:43.213Z,1011.75
2022-10-13T12:00:43.163Z,1011.83
2022-10-13T12:01:43.150Z,1011.76
2022-10-13T12:02:43.194Z,1011.78
2022-10-13T12:03:43.114Z,1011.78
2022-10-13T12:04:46.630Z,1011.80
2022-10-13T12:05:43.093Z,1011.82
2022-10-13T12:06:43.076Z,1011.81
2022-10-13T12:07:43.077Z,1011.74